Time;durP1;ratioP1;P1;durP2;ratioP2;P2;SDS_P1;SDS_P2;PMS_P1;PMS_P2;Temp;Humidity;BMP_temperature;BMP_pressure;BME280_temperature;BME280_humidity;BME280_pressure;Samples;Min_cycle;Max_cycle;Signal;HPM_P1;HPM_P2
2021/06/15 00:01:06;;;;;;;3.72;3.50;;;;;;;19.55;69.92;100619.78;4986373;28;103619;-55
2021/06/15 00:03:32;;;;;;;4.03;3.63;;;;;;;19.56;70.00;100626.91;4981237;28;102738;-55
2021/06/15 00:06:00;;;;;;;4.45;3.80;;;;;;;19.53;70.39;100628.38;4983259;28;102336;-56
2021/06/15 00:08:27;;;;;;;4.10;3.80;;;;;;;19.55;70.08;100625.28;4983352;28;102618;-56
2021/06/15 00:10:54;;;;;;;4.35;3.72;;;;;;;19.55;70.25;100617.00;4988094;28;103770;-56
2021/06/15 00:13:21;;;;;;;4.03;3.63;;;;;;;19.54;69.95;100612.59;4984994;28;105007;-55
2021/06/15 00:15:54;;;;;;;3.85;3.55;;;;;;;19.53;70.32;100617.31;4988091;28;102594;-56
2021/06/15 00:18:20;;;;;;;3.70;3.40;;;;;;;19.53;70.33;100616.53;4985934;28;102540;-56
2021/06/15 00:20:49;;;;;;;4.90;3.80;;;;;;;19.54;70.16;100615.38;4973836;28;104278;-56
2021/06/15 00:23:19;;;;;;;4.63;3.90;;;;;;;19.54;70.25;100612.59;4980649;28;102798;-55
2021/06/15 00:25:46;;;;;;;4.20;3.90;;;;;;;19.54;70.23;100596.03;4985011;28;102528;-56
2021/06/15 00:28:12;;;;;;;5.13;3.50;;;;;;;19.53;70.18;100594.44;4983536;28;102445;-56
2021/06/15 00:30:39;;;;;;;4.03;3.63;;;;;;;19.54;70.30;100604.31;4984251;28;103953;-56
2021/06/15 00:33:06;;;;;;;3.80;3.50;;;;;;;19.54;70.25;100596.03;4979770;28;102375;-55
2021/06/15 00:35:33;;;;;;;4.13;3.78;;;;;;;19.54;70.31;100596.03;4976656;28;102648;-55
2021/06/15 00:37:59;;;;;;;3.85;3.50;;;;;;;19.53;70.02;100595.25;4985759;28;102599;-56
2021/06/15 00:40:28;;;;;;;4.10;3.80;;;;;;;19.54;70.12;100596.03;4987776;28;104285;-56
2021/06/15 00:42:54;;;;;;;4.95;3.85;;;;;;;19.54;70.23;100596.03;4987358;28;102569;-56
2021/06/15 00:45:24;;;;;;;3.78;3.50;;;;;;;19.54;70.03;100596.03;4988523;28;103062;-56
2021/06/15 00:47:51;;;;;;;3.80;3.50;;;;;;;19.54;70.33;100596.84;4987401;28;102522;-56
2021/06/15 00:50:19;;;;;;;4.03;3.72;;;;;;;19.53;70.28;100597.19;4991357;28;103881;-56
2021/06/15 00:52:46;;;;;;;3.70;3.47;;;;;;;19.53;70.02;100598.00;4987029;28;102303;-56
2021/06/15 00:55:13;;;;;;;3.70;3.38;;;;;;;19.53;70.27;100595.25;4984130;28;102490;-56
2021/06/15 00:57:41;;;;;;;3.72;3.42;;;;;;;19.53;70.11;100583.41;4998847;28;102237;-56
2021/06/15 01:00:08;;;;;;;4.30;4.00;;;;;;;19.52;70.19;100581.78;4991029;28;103960;-55
2021/06/15 01:02:37;;;;;;;4.23;3.93;;;;;;;19.54;70.14;100596.03;4983931;28;103428;-56
2021/06/15 01:05:07;;;;;;;4.18;3.88;;;;;;;19.51;70.51;100591.19;4983741;28;103035;-56
2021/06/15 01:07:42;;;;;;;5.15;4.07;;;;;;;19.50;70.28;100595.09;4987955;28;102759;-56
2021/06/15 01:10:16;;;;;;;4.45;4.05;;;;;;;19.50;70.52;100595.09;4989207;28;104047;-56
2021/06/15 01:12:54;;;;;;;4.20;3.80;;;;;;;19.51;70.60;100592.03;4985557;28;102603;-56
2021/06/15 01:15:26;;;;;;;4.03;3.72;;;;;;;19.51;70.25;100588.44;4987775;28;102387;-56
2021/06/15 01:17:56;;;;;;;4.47;3.97;;;;;;;19.52;70.50;100592.81;4982279;28;102635;-55
2021/06/15 01:20:25;;;;;;;4.35;3.95;;;;;;;19.50;70.61;100579.34;4974501;28;104039;-56
2021/06/15 01:23:17;;;;;;;4.47;4.07;;;;;;;19.50;70.46;100573.81;4987573;28;103097;-56
2021/06/15 01:25:56;;;;;;;4.25;3.88;;;;;;;19.50;70.47;100586.81;4981714;28;102555;-56
2021/06/15 01:28:27;;;;;;;4.03;3.70;;;;;;;19.50;70.39;100556.47;4988739;28;102435;-56
2021/06/15 01:31:02;;;;;;;5.68;3.97;;;;;;;19.50;70.29;100589.59;4980114;28;104196;-56
2021/06/15 01:33:31;;;;;;;4.18;3.83;;;;;;;19.49;70.59;100585.22;4976715;28;102175;-56
2021/06/15 01:35:57;;;;;;;;;;;;;;;19.49;70.32;100576.94;4986701;28;102470;-56
2021/06/15 01:38:29;;;;;;;5.85;3.80;;;;;;;19.49;70.53;100588.78;4988335;28;102628;-56
2021/06/15 01:41:03;;;;;;;5.20;4.00;;;;;;;19.50;70.26;100584.06;4986469;28;103869;-56
2021/06/15 01:43:36;;;;;;;4.30;3.75;;;;;;;19.52;70.27;100590.06;4987690;28;102542;-56
2021/06/15 01:46:05;;;;;;;4.28;3.88;;;;;;;19.49;70.18;100590.72;4983735;28;102163;-56
2021/06/15 01:48:39;;;;;;;4.38;4.07;;;;;;;19.50;70.28;100584.06;4989144;28;102498;-56
2021/06/15 01:51:08;;;;;;;3.80;3.50;;;;;;;19.50;70.37;100595.91;4982373;28;104042;-55
2021/06/15 01:53:39;;;;;;;4.90;4.50;;;;;;;19.48;70.44;100598.22;4988075;28;102663;-56
2021/06/15 01:56:06;;;;;;;4.30;3.90;;;;;;;19.48;70.44;100591.88;4984969;28;102438;-55
2021/06/15 01:58:36;;;;;;;4.25;3.95;;;;;;;19.49;70.90;100601.78;4983261;28;102511;-56
2021/06/15 02:01:04;;;;;;;4.28;3.90;;;;;;;19.49;70.96;100591.53;4985753;28;103918;-56
2021/06/15 02:03:32;;;;;;;4.30;4.00;;;;;;;19.48;70.61;100597.41;4997092;28;102558;-56
2021/06/15 02:06:01;;;;;;;4.90;4.18;;;;;;;19.47;70.61;100602.09;4984662;28;102569;-56
2021/06/15 02:08:31;;;;;;;4.72;4.32;;;;;;;19.48;70.55;100608.44;4984685;28;102664;-56
2021/06/15 02:10:59;;;;;;;4.68;4.10;;;;;;;19.48;70.80;100616.72;4981151;28;103906;-56
2021/06/15 02:13:29;;;;;;;4.55;3.90;;;;;;;19.48;70.82;100611.22;4981460;28;102133;-56
2021/06/15 02:15:59;;;;;;;4.70;4.30;;;;;;;19.47;70.95;100607.63;4982357;28;102427;-56
2021/06/15 02:18:29;;;;;;;5.45;4.35;;;;;;;19.45;71.37;100613.47;4980657;28;102522;-56
2021/06/15 02:20:57;;;;;;;4.28;3.92;;;;;;;19.44;71.16;100614.63;4983899;28;104147;-56
2021/06/15 02:23:24;;;;;;;5.90;4.38;;;;;;;19.45;70.99;100621.75;4986833;28;102242;-56
2021/06/15 02:25:53;;;;;;;4.40;4.00;;;;;;;19.43;71.13;100607.47;4984708;28;103707;-56
2021/06/15 02:28:20;;;;;;;4.75;4.18;;;;;;;19.45;70.98;100605.19;4982683;28;102814;-56
2021/06/15 02:30:47;;;;;;;7.03;4.10;;;;;;;19.44;70.86;100600.81;4987501;28;103981;-56
2021/06/15 02:33:20;;;;;;;5.85;4.30;;;;;;;19.44;70.88;100609.09;4981968;28;105581;-56
2021/06/15 02:35:53;;;;;;;4.85;4.45;;;;;;;19.44;70.91;100606.34;4996564;28;102521;-55
2021/06/15 02:38:26;;;;;;;6.35;4.47;;;;;;;19.44;70.83;100619.34;4987124;28;102643;-56
2021/06/15 02:40:54;;;;;;;4.68;4.28;;;;;;;19.43;70.99;100613.00;4984330;28;104204;-56
2021/06/15 02:43:23;;;;;;;5.40;4.75;;;;;;;19.42;70.96;100614.13;4980391;28;102287;-55
2021/06/15 02:45:53;;;;;;;6.35;4.22;;;;;;;19.43;70.97;100610.22;4985646;28;102840;-55
2021/06/15 02:48:23;;;;;;;5.13;4.60;;;;;;;19.44;71.15;100611.06;4978303;28;102196;-56
2021/06/15 02:50:52;;;;;;;4.97;4.57;;;;;;;19.44;70.95;100611.88;4986896;28;104264;-56
2021/06/15 02:53:21;;;;;;;;;;;;;;;19.45;70.83;100610.72;4987410;28;102855;-56
2021/06/15 02:55:53;;;;;;;6.93;4.72;;;;;;;19.45;71.12;100615.44;4982282;28;103518;-56
2021/06/15 02:58:20;;;;;;;7.30;4.43;;;;;;;19.44;71.21;100619.34;4984240;28;102628;-55
2021/06/15 03:00:46;;;;;;;5.13;4.63;;;;;;;19.43;70.71;100618.50;4985851;28;103864;-56
2021/06/15 03:03:13;;;;;;;4.97;4.57;;;;;;;19.43;70.97;100624.03;4988672;28;102718;-56
2021/06/15 03:05:41;;;;;;;5.45;4.90;;;;;;;19.44;70.80;100614.63;4986626;28;102477;-55
2021/06/15 03:08:09;;;;;;;4.60;4.20;;;;;;;19.44;71.11;100625.66;4985579;28;103413;-56
2021/06/15 03:10:36;;;;;;;6.88;4.60;;;;;;;19.42;70.97;100622.41;4985220;28;103737;-56
2021/06/15 03:13:08;;;;;;;4.75;4.35;;;;;;;19.44;70.79;100624.88;4984464;28;102714;-56
2021/06/15 03:15:41;;;;;;;4.72;4.30;;;;;;;19.43;70.73;100621.28;4982509;28;102706;-56
2021/06/15 03:18:13;;;;;;;5.50;4.68;;;;;;;19.44;71.10;100630.38;4984285;28;102479;-56
2021/06/15 03:20:42;;;;;;;5.53;4.60;;;;;;;19.44;71.08;100636.72;4986144;28;104006;-56
2021/06/15 03:23:13;;;;;;;5.43;4.70;;;;;;;19.43;70.82;100629.56;4982635;28;102216;-56
2021/06/15 03:25:41;;;;;;;4.63;4.22;;;;;;;19.44;70.71;100636.72;4980895;28;102559;-56
2021/06/15 03:28:11;;;;;;;4.67;4.27;;;;;;;19.44;70.48;100631.19;4984865;28;102176;-56
2021/06/15 03:30:42;;;;;;;5.88;4.38;;;;;;;19.47;70.72;100628.88;4983736;28;103714;-56
2021/06/15 03:33:13;;;;;;;5.30;4.80;;;;;;;19.48;70.94;100630.53;4985055;28;102105;-56
2021/06/15 03:35:44;;;;;;;4.65;4.35;;;;;;;19.47;71.04;100623.38;4984257;28;102388;-56
2021/06/15 03:38:15;;;;;;;4.57;4.28;;;;;;;19.46;70.74;100628.09;4981852;28;102448;-56
2021/06/15 03:40:47;;;;;;;4.18;3.80;;;;;;;19.48;70.59;100625.00;4986671;28;104067;-56
2021/06/15 03:43:14;;;;;;;7.05;4.50;;;;;;;19.48;70.53;100625.00;4984327;28;102550;-55
2021/06/15 03:45:50;;;;;;;5.00;4.50;;;;;;;19.49;70.63;100632.13;4985832;28;104403;-56
2021/06/15 03:48:19;;;;;;;5.70;5.20;;;;;;;19.50;70.56;100622.69;4999115;28;102689;-56
2021/06/15 03:50:50;;;;;;;5.05;4.65;;;;;;;19.49;70.77;100632.13;4987388;28;103929;-56
2021/06/15 03:53:18;;;;;;;4.70;4.30;;;;;;;19.49;70.81;100626.63;4989336;28;102507;-56
2021/06/15 03:55:46;;;;;;;5.32;4.40;;;;;;;19.49;70.58;100626.63;4988725;28;102046;-56
2021/06/15 03:58:14;;;;;;;6.05;4.70;;;;;;;19.49;70.93;100618.34;4989842;28;102159;-56
2021/06/15 04:00:48;;;;;;;5.65;4.30;;;;;;;19.50;70.56;100606.16;4988874;28;103743;-57
2021/06/15 04:03:15;;;;;;;5.10;4.70;;;;;;;19.49;70.75;100601.78;4988060;28;102726;-55
2021/06/15 04:05:43;;;;;;;4.43;4.13;;;;;;;19.49;70.48;100599.81;4985523;28;102800;-56
2021/06/15 04:08:14;;;;;;;4.47;4.03;;;;;;;19.50;70.37;100598.66;4986592;28;102788;-56
2021/06/15 04:10:44;;;;;;;4.70;4.30;;;;;;;19.50;70.86;100615.22;4980764;28;103650;-56
2021/06/15 04:13:12;;;;;;;4.57;4.20;;;;;;;19.51;70.90;100607.75;4989978;28;102035;-56
2021/06/15 04:15:57;;;;;;;4.50;4.10;;;;;;;19.49;70.73;100604.53;4989852;28;102193;-56
2021/06/15 04:18:25;;;;;;;5.18;4.68;;;;;;;19.48;70.59;100603.72;4991892;28;102925;-56
2021/06/15 04:20:55;;;;;;;4.82;4.43;;;;;;;19.49;70.67;100588.78;4991408;28;103609;-56
2021/06/15 04:23:28;;;;;;;5.28;4.78;;;;;;;19.49;70.84;100588.78;4988922;28;102089;-56
2021/06/15 04:25:56;;;;;;;4.38;4.07;;;;;;;19.50;70.51;100598.66;4987997;28;102744;-56
2021/06/15 04:28:23;;;;;;;4.97;4.57;;;;;;;19.50;70.78;100589.59;4989038;28;102642;-56
2021/06/15 04:30:49;;;;;;;4.70;4.40;;;;;;;19.51;70.60;100591.19;4990741;28;103943;-56
2021/06/15 04:33:21;;;;;;;5.03;4.63;;;;;;;19.50;70.93;100586.81;4988048;28;102617;-56
2021/06/15 04:35:52;;;;;;;4.93;4.35;;;;;;;19.50;70.75;100575.78;4989158;28;102374;-56
2021/06/15 04:38:22;;;;;;;4.97;4.57;;;;;;;19.49;70.73;100568.66;4985884;28;103551;-56
2021/06/15 04:40:58;;;;;;;6.05;4.95;;;;;;;19.50;70.72;100568.31;4987136;28;103882;-56
2021/06/15 04:43:32;;;;;;;5.00;4.60;;;;;;;19.51;70.62;100574.63;5002637;28;102491;-56
2021/06/15 04:46:07;;;;;;;4.95;4.32;;;;;;;19.52;70.53;100576.28;4989872;28;102796;-56
2021/06/15 04:48:37;;;;;;;13.90;5.07;;;;;;;19.50;71.25;100567.50;4986181;28;102931;-57
2021/06/15 04:51:05;;;;;;;14.90;6.28;;;;;;;19.48;71.39;100573.38;4989063;28;103833;-56
2021/06/15 04:53:36;;;;;;;21.55;6.35;;;;;;;19.50;71.61;100578.53;4988981;28;102334;-56
2021/06/15 04:56:08;;;;;;;11.48;5.90;;;;;;;19.51;71.53;100571.88;4986684;28;102582;-56
2021/06/15 04:58:35;;;;;;;22.15;5.90;;;;;;;19.53;71.39;100572.34;4994047;28;102366;-55
2021/06/15 05:01:03;;;;;;;14.75;5.78;;;;;;;19.54;71.23;100579.47;4985832;28;103887;-56
2021/06/15 05:03:32;;;;;;;8.00;5.38;;;;;;;19.54;71.08;100585.00;4987821;28;102172;-56
2021/06/15 05:06:02;;;;;;;;;;;;;;;19.53;71.34;100588.91;4985673;28;102394;-56
2021/06/15 05:08:31;;;;;;;8.02;5.30;;;;;;;19.53;71.44;100577.88;4975283;28;102442;-57
2021/06/15 05:11:01;;;;;;;13.32;5.25;;;;;;;19.54;71.08;100580.28;4978109;28;103906;-56
2021/06/15 05:13:31;;;;;;;8.65;5.85;;;;;;;19.55;71.22;100575.59;4983850;28;102223;-56
2021/06/15 05:16:00;;;;;;;14.77;5.78;;;;;;;19.56;71.03;100582.72;4986373;28;102635;-56
2021/06/15 05:18:26;;;;;;;7.05;5.05;;;;;;;19.56;71.17;100579.97;4985071;28;102522;-56
2021/06/15 05:20:53;;;;;;;8.88;5.43;;;;;;;19.56;70.92;100579.97;4984736;28;104072;-56
2021/06/15 05:23:22;;;;;;;7.43;4.63;;;;;;;19.58;71.17;100597.00;4990385;28;102576;-56
2021/06/15 05:25:49;;;;;;;8.35;4.90;;;;;;;19.57;71.10;100601.72;4987067;28;102965;-56
2021/06/15 05:28:17;;;;;;;8.82;5.38;;;;;;;19.57;70.97;100600.91;4988977;28;102519;-56
2021/06/15 05:30:45;;;;;;;19.60;5.93;;;;;;;19.57;71.17;100611.94;4981978;28;103910;-55
2021/06/15 05:33:12;;;;;;;17.05;6.85;;;;;;;19.56;71.06;100611.13;4987179;28;102235;-56
2021/06/15 05:35:40;;;;;;;17.00;6.00;;;;;;;19.56;70.94;100613.09;4991394;28;102760;-56
2021/06/15 05:38:08;;;;;;;9.98;5.82;;;;;;;19.57;71.53;100622.97;4983055;28;102663;-56
2021/06/15 05:40:35;;;;;;;12.20;5.75;;;;;;;19.57;71.17;100626.56;4984649;28;104203;-56
2021/06/15 05:43:01;;;;;;;8.00;5.15;;;;;;;19.58;70.90;100624.59;4976880;28;102470;-56
2021/06/15 05:45:29;;;;;;;8.40;5.22;;;;;;;19.60;71.03;100625.09;4986779;28;102081;-56
2021/06/15 05:47:57;;;;;;;13.35;6.43;;;;;;;19.61;71.19;100618.41;4985968;28;102533;-55
2021/06/15 05:50:24;;;;;;;14.93;6.20;;;;;;;19.63;71.17;100618.94;4984275;28;103879;-56
2021/06/15 05:52:51;;;;;;;12.63;6.07;;;;;;;19.66;71.06;100615.50;4979438;28;102679;-56
2021/06/15 05:55:18;;;;;;;10.20;5.78;;;;;;;19.66;70.86;100616.31;4981594;28;102848;-56
2021/06/15 05:57:45;;;;;;;11.73;5.80;;;;;;;19.68;70.94;100622.28;4985155;28;103386;-56
2021/06/15 06:00:13;;;;;;;8.85;5.47;;;;;;;19.68;71.30;100618.72;4987576;28;104101;-56
2021/06/15 06:02:39;;;;;;;13.18;6.55;;;;;;;19.68;71.17;100610.44;4988075;28;102587;-56
2021/06/15 06:10:23;;;;;;;206.55;29.50;;;;;;;19.71;71.71;100614.50;4986859;28;103828;-57
2021/06/15 06:12:52;;;;;;;238.80;30.25;;;;;;;19.70;72.62;100605.41;4984795;28;102461;-56
2021/06/15 06:15:34;;;;;;;105.10;16.20;;;;;;;19.70;71.84;100605.41;4982131;28;104104;-57
2021/06/15 06:18:07;;;;;;;134.27;20.73;;;;;;;19.70;71.85;100619.22;4986252;28;103533;-57
2021/06/15 06:20:36;;;;;;;80.78;13.70;;;;;;;19.71;71.65;100612.53;4977629;28;104036;-58
2021/06/15 06:23:02;;;;;;;;;;;;;;;19.70;71.25;100608.16;4977547;28;102234;-57
2021/06/15 06:25:30;;;;;;;55.58;10.80;;;;;;;19.70;71.10;100610.13;4985406;28;102603;-58
2021/06/15 06:27:56;;;;;;;56.75;10.02;;;;;;;19.68;71.14;100607.69;4984293;28;102649;-58
2021/06/15 06:30:23;;;;;;;61.25;11.20;;;;;;;19.70;71.20;100605.41;4980775;28;105146;-58
2021/06/15 06:32:50;;;;;;;34.20;8.68;;;;;;;19.70;71.37;100605.41;4980628;28;102926;-58
2021/06/15 06:35:17;;;;;;;30.42;8.18;;;;;;;19.68;71.37;100613.19;4982596;28;102542;-58
2021/06/15 06:37:44;;;;;;;30.75;7.85;;;;;;;19.68;71.35;100614.00;4988521;28;102738;-58
2021/06/15 06:40:12;;;;;;;32.22;8.68;;;;;;;19.68;71.30;100615.97;4979722;28;104124;-57
2021/06/15 06:42:39;;;;;;;23.70;7.17;;;;;;;19.67;71.12;100611.59;4999129;28;102440;-57
2021/06/15 06:45:07;;;;;;;23.98;7.18;;;;;;;19.67;71.30;100622.63;4979967;28;102469;-58
2021/06/15 06:47:34;;;;;;;26.55;7.40;;;;;;;19.66;70.77;100610.78;4985403;28;102417;-58
2021/06/15 06:50:03;;;;;;;19.98;7.10;;;;;;;19.67;70.89;100603.31;4982653;28;103921;-58
2021/06/15 06:52:30;;;;;;;19.52;6.32;;;;;;;19.66;70.75;100615.50;4980390;28;102610;-57
2021/06/15 06:54:58;;;;;;;20.52;6.90;;;;;;;19.66;70.81;100604.47;4981100;28;102813;-57
2021/06/15 06:57:25;;;;;;;23.33;6.45;;;;;;;19.65;70.50;100602.81;4983103;28;102917;-58
2021/06/15 06:59:51;;;;;;;21.02;6.50;;;;;;;19.65;70.48;100598.13;4985448;28;103944;-58
2021/06/15 07:02:18;;;;;;;16.90;6.20;;;;;;;19.66;70.61;100598.94;4983234;28;102420;-57
2021/06/15 07:04:44;;;;;;;21.77;6.50;;;;;;;19.66;70.56;100621.03;4987387;28;102689;-58
2021/06/15 07:07:11;;;;;;;15.70;6.07;;;;;;;19.65;70.59;100613.88;4983628;28;102309;-57
2021/06/15 07:09:37;;;;;;;18.55;6.53;;;;;;;19.65;70.56;100609.19;4981640;28;104416;-57
2021/06/15 07:12:22;;;;;;;22.55;6.78;;;;;;;19.66;70.63;100615.50;4985435;28;102561;-58
2021/06/15 07:14:48;;;;;;;21.55;6.50;;;;;;;19.65;70.39;100603.66;4984855;28;102178;-57
2021/06/15 07:17:15;;;;;;;15.43;6.53;;;;;;;19.65;70.41;100597.31;4988609;28;102323;-57
2021/06/15 07:19:41;;;;;;;19.45;5.85;;;;;;;19.65;70.42;100598.13;4987382;28;103882;-58
2021/06/15 07:22:08;;;;;;;18.83;6.30;;;;;;;19.66;70.49;100596.19;4986581;28;102223;-57
2021/06/15 07:24:35;;;;;;;14.32;6.13;;;;;;;19.66;70.63;100598.94;4977699;28;102558;-57
2021/06/15 07:27:02;;;;;;;13.80;6.68;;;;;;;19.66;70.49;100604.47;4989592;28;102188;-58
2021/06/15 07:29:30;;;;;;;15.18;6.13;;;;;;;19.65;70.27;100597.31;4983403;28;104291;-58
2021/06/15 07:31:57;;;;;;;16.00;5.83;;;;;;;19.66;70.29;100598.94;4986143;28;102441;-58
2021/06/15 07:34:24;;;;;;;16.33;6.90;;;;;;;19.66;70.72;100604.47;4984429;28;102243;-57
2021/06/15 07:36:50;;;;;;;13.02;6.13;;;;;;;19.66;70.37;100604.47;4981958;28;102357;-57
2021/06/15 07:39:17;;;;;;;12.43;6.10;;;;;;;19.64;70.42;100596.50;4984351;28;103923;-58
2021/06/15 07:41:44;;;;;;;11.13;5.72;;;;;;;19.64;70.35;100602.03;4985848;28;102064;-57
2021/06/15 07:44:11;;;;;;;15.18;5.90;;;;;;;19.65;70.37;100597.31;4986352;28;102469;-58
2021/06/15 07:46:39;;;;;;;10.38;5.35;;;;;;;19.65;70.21;100591.78;4979277;28;102786;-57
2021/06/15 07:49:06;;;;;;;16.00;7.57;;;;;;;19.64;70.29;100590.16;4980632;28;103685;-58
2021/06/15 07:51:32;;;;;;;10.27;5.57;;;;;;;19.65;70.39;100591.78;4987661;28;105487;-58
2021/06/15 07:53:59;;;;;;;10.48;5.40;;;;;;;19.65;70.67;100597.31;4977650;28;102495;-58
2021/06/15 07:56:26;;;;;;;11.13;6.03;;;;;;;19.65;70.68;100591.78;4988347;28;102327;-57
2021/06/15 07:58:52;;;;;;;15.35;6.43;;;;;;;19.65;70.67;100591.78;4982217;28;103908;-58
2021/06/15 08:01:19;;;;;;;37.00;7.82;;;;;;;19.67;71.41;100595.03;4985232;28;102443;-58
2021/06/15 08:03:47;;;;;;;14.70;6.45;;;;;;;19.70;70.54;100594.34;4987697;28;102311;-58
2021/06/15 08:06:14;;;;;;;23.50;7.18;;;;;;;19.70;70.79;100590.78;4986109;28;102264;-57
2021/06/15 08:08:41;;;;;;;15.05;6.30;;;;;;;19.70;70.89;100588.84;4977585;28;103785;-58
2021/06/15 08:11:08;;;;;;;16.40;6.35;;;;;;;19.71;70.68;100590.44;4986931;28;102057;-57
2021/06/15 08:13:35;;;;;;;15.48;7.00;;;;;;;19.71;70.73;100584.94;4988004;28;102301;-57
2021/06/15 08:16:02;;;;;;;20.70;7.00;;;;;;;19.71;70.67;100578.59;4988386;28;102308;-57
2021/06/15 08:18:28;;;;;;;13.05;7.07;;;;;;;19.72;70.64;100581.00;4988558;28;103272;-57
2021/06/15 08:20:57;;;;;;;10.07;6.30;;;;;;;19.72;70.60;100581.00;4987060;28;102635;-57
2021/06/15 08:23:24;;;;;;;15.30;6.00;;;;;;;19.72;70.46;100581.00;4987465;28;102301;-58
2021/06/15 08:25:51;;;;;;;15.27;6.57;;;;;;;19.73;70.68;100568.84;4985836;28;102416;-57
2021/06/15 08:28:18;;;;;;;14.57;6.32;;;;;;;19.74;70.80;100567.69;4984523;28;103902;-58
2021/06/15 08:30:45;;;;;;;10.43;5.68;;;;;;;19.74;70.56;100564.13;4987232;28;103098;-57
2021/06/15 08:33:12;;;;;;;17.38;6.20;;;;;;;19.79;70.47;100563.91;4979259;28;102396;-62
2021/06/15 08:35:39;;;;;;;23.38;5.82;;;;;;;19.86;71.22;100559.47;4986713;28;102874;-60
2021/06/15 08:38:07;;;;;;;23.17;6.63;;;;;;;19.92;71.70;100555.34;4984609;28;104153;-60
2021/06/15 08:40:34;;;;;;;20.55;5.57;;;;;;;19.96;70.52;100561.00;4983759;28;102257;-61
2021/06/15 08:43:01;;;;;;;23.88;6.28;;;;;;;19.99;71.47;100559.53;4978463;28;102696;-62
2021/06/15 08:45:27;;;;;;;31.95;22.92;;;;;;;20.07;73.38;100555.88;4981972;28;102195;-63
2021/06/15 08:47:54;;;;;;;23.83;12.10;;;;;;;20.13;72.58;100547.03;4985565;28;103992;-62
2021/06/15 08:50:24;;;;;;;17.20;7.22;;;;;;;20.15;72.70;100544.72;4982047;28;102414;-63
2021/06/15 08:52:52;;;;;;;12.10;6.45;;;;;;;20.18;73.24;100543.25;4985930;28;102735;-63
2021/06/15 08:55:21;;;;;;;14.27;6.28;;;;;;;20.19;72.70;100536.56;4987122;28;102642;-63
2021/06/15 08:57:55;;;;;;;13.07;6.28;;;;;;;20.17;72.18;100544.41;4987400;28;102770;-63
2021/06/15 09:00:21;;;;;;;12.35;6.13;;;;;;;20.17;72.08;100544.41;4988192;28;102547;-63
2021/06/15 09:02:48;;;;;;;14.73;6.35;;;;;;;20.19;72.72;100544.84;4986975;28;102378;-65
2021/06/15 09:05:19;;;;;;;10.63;6.28;;;;;;;20.20;72.27;100540.97;4990031;28;102575;-65
2021/06/15 09:08:02;;;;;;;12.63;6.07;;;;;;;20.22;72.17;100537.84;4988254;28;103706;-64
2021/06/15 09:10:33;;;;;;;9.55;5.30;;;;;;;20.21;71.90;100537.03;4987562;28;102726;-65
2021/06/15 09:13:01;;;;;;;8.40;5.35;;;;;;;20.23;72.14;100534.75;4990240;28;102557;-64
2021/06/15 09:15:28;;;;;;;9.60;5.70;;;;;;;20.25;72.50;100532.44;4999513;28;102663;-64
2021/06/15 09:17:55;;;;;;;8.85;4.95;;;;;;;20.27;72.84;100524.63;4990974;28;103815;-64
2021/06/15 09:20:24;;;;;;;58.80;7.97;;;;;;;20.29;73.35;100514.03;4989409;28;102330;-59
2021/06/15 09:23:03;;;;;;;28.05;6.45;;;;;;;20.32;74.04;100504.25;4991137;28;102261;-59
2021/06/15 09:25:32;;;;;;;13.85;5.72;;;;;;;20.32;72.50;100502.28;4991590;28;102792;-59
2021/06/15 09:28:14;;;;;;;9.60;5.07;;;;;;;20.35;73.70;100493.31;4989296;28;103882;-60
2021/06/15 09:30:55;;;;;;;7.93;5.38;;;;;;;20.43;73.11;100491.59;4988008;28;102496;-60
2021/06/15 09:33:35;;;;;;;11.35;5.75;;;;;;;20.44;73.83;100478.59;4984882;28;102861;-59
2021/06/15 09:36:04;;;;;;;15.60;6.28;;;;;;;20.46;73.68;100479.06;4985598;28;102576;-59
2021/06/15 09:38:33;;;;;;;12.18;5.20;;;;;;;20.46;73.54;100479.06;4987660;28;103644;-59
2021/06/15 09:41:01;;;;;;;10.43;4.90;;;;;;;20.48;73.97;100466.50;4989694;28;102159;-59
2021/06/15 09:43:28;;;;;;;11.90;5.70;;;;;;;20.53;74.03;100471.03;4989557;28;102007;-61
2021/06/15 09:45:54;;;;;;;12.05;5.68;;;;;;;20.54;74.50;100461.59;4993099;28;102694;-60
2021/06/15 09:48:26;;;;;;;9.23;6.00;;;;;;;20.55;74.28;100461.22;4981884;28;104085;-58
2021/06/15 09:50:54;;;;;;;17.45;7.70;;;;;;;20.58;74.51;100456.97;4988236;28;102170;-59
2021/06/15 09:53:23;;;;;;;8.77;6.30;;;;;;;20.60;74.22;100449.16;4987714;28;102012;-59
2021/06/15 09:55:50;;;;;;;11.13;6.43;;;;;;;20.61;74.24;100451.56;4989288;28;102117;-59
2021/06/15 09:58:19;;;;;;;11.02;6.70;;;;;;;20.63;74.63;100449.28;4994361;28;103903;-59
2021/06/15 10:00:52;;;;;;;9.73;6.43;;;;;;;20.64;74.57;100434.28;4983222;28;102558;-59
2021/06/15 10:03:18;;;;;;;14.63;6.55;;;;;;;20.68;74.39;100442.69;4987515;28;102447;-58
2021/06/15 10:05:45;;;;;;;11.50;7.28;;;;;;;20.69;74.42;100433.25;4986021;28;102766;-59
2021/06/15 10:08:13;;;;;;;11.18;6.97;;;;;;;20.70;74.50;100425.75;4981511;28;104860;-59
2021/06/15 10:10:42;;;;;;;9.33;6.53;;;;;;;20.71;74.20;100424.63;4987226;28;102123;-60
2021/06/15 10:13:09;;;;;;;10.82;7.57;;;;;;;20.73;74.25;100409.28;4985054;28;102434;-59
2021/06/15 10:15:38;;;;;;;14.02;7.97;;;;;;;20.72;74.02;100407.66;4983120;28;102539;-59
2021/06/15 10:18:06;;;;;;;10.38;6.90;;;;;;;20.72;73.95;100401.34;4986328;28;105206;-59
2021/06/15 10:20:34;;;;;;;47.15;9.98;;;;;;;20.81;73.97;100405.59;4987146;28;102598;-59
2021/06/15 10:23:02;;;;;;;21.57;7.90;;;;;;;20.78;74.11;100406.28;4984368;28;102556;-59
2021/06/15 10:25:30;;;;;;;21.40;7.97;;;;;;;20.79;73.96;100399.59;4982055;28;102743;-61
2021/06/15 10:27:57;;;;;;;15.23;8.07;;;;;;;20.77;73.93;100393.63;4986599;28;103521;-59
2021/06/15 10:30:31;;;;;;;15.00;7.80;;;;;;;20.78;73.85;100381.41;4983906;28;102660;-59
2021/06/15 10:33:02;;;;;;;10.85;7.13;;;;;;;20.78;73.98;100373.09;4985975;28;102661;-61
2021/06/15 10:35:36;;;;;;;13.65;7.63;;;;;;;20.80;74.07;100350.63;4984467;28;102241;-59
2021/06/15 10:38:04;;;;;;;9.43;7.97;;;;;;;20.83;74.13;100350.72;4983728;28;104909;-59
2021/06/15 10:40:51;;;;;;;18.25;8.35;;;;;;;20.82;73.97;100346.34;4986027;28;102194;-59
2021/06/15 10:43:22;;;;;;;60.05;12.13;;;;;;;20.82;73.76;100362.94;4982881;28;102301;-58
2021/06/15 10:45:52;;;;;;;35.67;11.25;;;;;;;20.77;73.66;100343.84;4981220;28;104076;-59
2021/06/15 10:48:29;;;;;;;14.68;8.85;;;;;;;20.73;73.54;100342.09;4985324;28;104075;-58
2021/06/15 10:50:58;;;;;;;20.00;9.57;;;;;;;20.69;73.42;100336.47;4982822;28;102906;-58
2021/06/15 10:53:36;;;;;;;20.05;9.40;;;;;;;20.65;73.13;100324.50;4994363;28;102391;-58
2021/06/15 10:56:05;;;;;;;13.02;9.73;;;;;;;20.65;73.10;100318.97;4994304;28;102165;-57
2021/06/15 10:58:55;;;;;;;13.67;9.20;;;;;;;20.63;73.14;100302.75;4978274;28;104172;-58
2021/06/15 11:01:23;;;;;;;15.73;9.75;;;;;;;20.62;72.94;100308.59;4986529;28;102529;-57
2021/06/15 11:03:53;;;;;;;13.98;9.05;;;;;;;20.63;73.02;100315.75;4984574;28;103291;-58
2021/06/15 11:06:35;;;;;;;18.90;9.45;;;;;;;20.62;73.03;100337.06;4983649;28;102385;-58
2021/06/15 11:09:22;;;;;;;37.58;11.57;;;;;;;20.60;72.96;100341.34;4989931;28;103869;-58
2021/06/15 11:12:12;;;;;;;21.65;10.95;;;;;;;20.54;72.81;100356.53;4991755;28;103332;-57
2021/06/15 11:14:39;;;;;;;14.60;10.60;;;;;;;20.51;72.84;100374.63;4976692;28;102722;-57
2021/06/15 11:17:07;;;;;;;25.05;11.50;;;;;;;20.47;72.62;100350.75;4990044;28;102383;-58
2021/06/15 11:19:38;;;;;;;;;;;;;;;20.42;72.74;100342.72;4978737;28;105076;-57
2021/06/15 11:22:11;;;;;;;15.27;10.68;;;;;;;20.37;72.50;100336.25;4981178;28;102597;-59
2021/06/15 11:24:56;;;;;;;18.70;10.80;;;;;;;20.29;72.00;100328.88;4983522;28;102541;-56
2021/06/15 11:27:33;;;;;;;16.80;10.77;;;;;;;20.21;72.31;100321.53;4984454;28;102473;-56
2021/06/15 11:30:20;;;;;;;11.53;10.33;;;;;;;20.18;72.31;100313.94;4995452;28;104071;-57